createdAt,value
2019-05-14T00:01:12.028Z,2.03
2019-05-14T00:03:42.850Z,2.10
2019-05-14T00:06:13.558Z,1.90
2019-05-14T00:08:44.278Z,1.80
2019-05-14T00:11:15.115Z,1.90
2019-05-14T00:13:45.868Z,1.80
2019-05-14T00:16:16.608Z,1.90
2019-05-14T00:18:47.460Z,1.80
2019-05-14T00:21:18.291Z,1.90
2019-05-14T00:23:51.232Z,2.10
2019-05-14T00:26:21.609Z,1.90
2019-05-14T00:28:52.616Z,2.23
2019-05-14T00:31:23.448Z,2.00
2019-05-14T00:33:54.180Z,1.93
2019-05-14T00:36:24.930Z,2.00
2019-05-14T00:38:55.676Z,1.60
2019-05-14T00:41:26.062Z,1.93
2019-05-14T00:43:56.818Z,1.80
2019-05-14T00:46:27.658Z,1.90
2019-05-14T00:48:59.072Z,2.10
2019-05-14T00:51:31.733Z,2.30
2019-05-14T00:54:02.728Z,2.10
2019-05-14T00:56:33.730Z,2.10
2019-05-14T00:59:04.806Z,2.20
2019-05-14T01:01:35.580Z,2.30
2019-05-14T01:04:06.384Z,2.00
2019-05-14T01:06:37.256Z,2.90
2019-05-14T01:09:08.096Z,3.47
2019-05-14T01:11:39.032Z,4.77
2019-05-14T01:14:12.016Z,7.23
2019-05-14T01:16:42.590Z,10.00
2019-05-14T01:19:13.458Z,10.73
2019-05-14T01:21:44.179Z,7.23
2019-05-14T01:24:14.915Z,8.80
2019-05-14T01:26:45.756Z,10.10
2019-05-14T01:29:16.516Z,8.03
2019-05-14T01:31:47.227Z,8.00
2019-05-14T01:34:18.198Z,9.83
2019-05-14T01:36:48.988Z,8.73
2019-05-14T01:39:21.303Z,7.90
2019-05-14T01:41:51.983Z,6.90
2019-05-14T01:44:22.796Z,4.87
2019-05-14T01:46:53.633Z,3.87
2019-05-14T01:49:24.442Z,3.60
2019-05-14T01:51:55.312Z,2.40
2019-05-14T01:54:26.126Z,2.90
2019-05-14T01:56:56.844Z,2.40
2019-05-14T01:59:27.664Z,1.80
2019-05-14T02:01:58.390Z,2.10
2019-05-14T02:04:31.160Z,1.80
2019-05-14T02:07:02.359Z,1.90
2019-05-14T02:09:33.366Z,2.10
2019-05-14T02:12:04.088Z,1.90
2019-05-14T02:14:34.839Z,2.00
2019-05-14T02:17:05.562Z,1.87
2019-05-14T02:19:36.298Z,1.90
2019-05-14T02:22:07.030Z,2.07
2019-05-14T02:24:37.798Z,1.60
2019-05-14T02:27:08.468Z,1.90
2019-05-14T02:29:41.399Z,2.00
2019-05-14T02:32:11.810Z,1.90
2019-05-14T02:34:42.539Z,1.83
2019-05-14T02:37:13.289Z,2.17
2019-05-14T02:39:43.731Z,2.00
2019-05-14T02:42:14.600Z,1.80
2019-05-14T02:44:45.400Z,1.87
2019-05-14T02:47:19.224Z,2.00
2019-05-14T02:49:50.106Z,2.23
2019-05-14T02:52:20.858Z,2.10
2019-05-14T02:54:51.894Z,1.90
2019-05-14T02:57:22.752Z,1.87
2019-05-14T02:59:53.391Z,2.17
2019-05-14T03:02:23.795Z,2.00
2019-05-14T03:04:54.728Z,2.00
2019-05-14T03:07:25.470Z,2.57
2019-05-14T03:09:59.159Z,2.20
2019-05-14T03:12:30.259Z,2.03
2019-05-14T03:15:01.188Z,2.30
2019-05-14T03:17:31.981Z,2.43
2019-05-14T03:20:02.853Z,2.70
2019-05-14T03:22:46.322Z,3.50
2019-05-14T03:25:09.875Z,3.43
2019-05-14T03:27:40.371Z,2.87
2019-05-14T03:30:13.306Z,3.20
2019-05-14T03:32:44.704Z,2.80
2019-05-14T03:35:15.658Z,2.60
2019-05-14T03:37:49.196Z,2.47
2019-05-14T03:40:19.580Z,2.33
2019-05-14T03:42:50.599Z,2.40
2019-05-14T03:45:21.431Z,2.77
2019-05-14T03:47:52.088Z,2.63
2019-05-14T03:50:22.813Z,3.00
2019-05-14T03:52:53.727Z,2.63
2019-05-14T03:55:24.475Z,2.60
2019-05-14T03:57:55.004Z,2.43
2019-05-14T04:00:50.051Z,2.30
2019-05-14T04:03:20.770Z,2.30
2019-05-14T04:05:52.193Z,2.50
2019-05-14T04:08:24.965Z,3.00
2019-05-14T04:10:59.055Z,2.77
2019-05-14T04:13:31.859Z,2.70
2019-05-14T04:16:03.543Z,2.70
2019-05-14T04:18:40.524Z,2.60
2019-05-14T04:21:13.189Z,2.60
2019-05-14T04:23:50.892Z,2.57
2019-05-14T04:26:22.007Z,3.03
2019-05-14T04:28:52.874Z,3.27
2019-05-14T04:31:23.496Z,3.27
2019-05-14T04:33:59.313Z,3.20
2019-05-14T04:36:29.967Z,3.17
2019-05-14T04:39:00.977Z,3.03
2019-05-14T04:41:31.996Z,3.87
2019-05-14T04:44:03.309Z,3.37
2019-05-14T04:46:34.213Z,3.30
2019-05-14T04:49:04.791Z,3.30
2019-05-14T04:51:35.613Z,3.10
2019-05-14T04:54:09.504Z,3.17
2019-05-14T04:56:40.084Z,2.80
2019-05-14T04:59:11.702Z,3.07
2019-05-14T05:01:42.443Z,3.20
2019-05-14T05:04:13.286Z,3.13
2019-05-14T05:06:44.157Z,3.03
2019-05-14T05:09:15.514Z,2.90
2019-05-14T05:11:49.523Z,2.73
2019-05-14T05:14:19.261Z,3.13
2019-05-14T05:16:50.225Z,2.93
2019-05-14T05:19:20.963Z,2.57
2019-05-14T05:21:51.820Z,2.83
2019-05-14T05:24:22.613Z,2.87
2019-05-14T05:26:53.349Z,3.10
2019-05-14T05:29:24.168Z,2.80
2019-05-14T05:31:55.069Z,3.10
2019-05-14T05:34:28.317Z,2.90
2019-05-14T05:36:59.417Z,2.80
2019-05-14T05:39:29.954Z,2.63
2019-05-14T05:42:00.739Z,2.67
2019-05-14T05:44:31.477Z,3.00
2019-05-14T05:47:02.209Z,3.33
2019-05-14T05:49:32.946Z,3.40
2019-05-14T05:52:03.775Z,2.80
2019-05-14T05:54:34.519Z,3.10
2019-05-14T05:57:05.249Z,3.20
2019-05-14T05:59:35.996Z,2.90
2019-05-14T06:02:09.155Z,2.80
2019-05-14T06:04:39.624Z,2.40
2019-05-14T06:07:10.634Z,2.90
2019-05-14T06:09:41.473Z,3.07
2019-05-14T06:12:12.149Z,2.63
2019-05-14T06:14:43.041Z,2.87
2019-05-14T06:17:13.779Z,3.40
2019-05-14T06:19:44.608Z,2.67
2019-05-14T06:22:15.358Z,2.43
2019-05-14T06:24:48.363Z,2.93
2019-05-14T06:27:18.457Z,2.67
2019-05-14T06:29:49.886Z,2.67
2019-05-14T06:32:20.656Z,2.70
2019-05-14T06:34:51.373Z,2.80
2019-05-14T06:37:22.117Z,2.73
2019-05-14T06:39:52.874Z,2.80
2019-05-14T06:42:23.341Z,2.87
2019-05-14T06:44:54.117Z,2.87
2019-05-14T06:47:24.846Z,2.70
2019-05-14T06:49:55.703Z,3.00
2019-05-14T06:52:28.743Z,2.90
2019-05-14T06:54:58.992Z,2.70
2019-05-14T06:57:29.582Z,2.77
2019-05-14T07:00:00.287Z,3.10
2019-05-14T07:02:30.987Z,3.50
2019-05-14T07:05:01.676Z,2.90
2019-05-14T07:07:32.361Z,2.73
2019-05-14T07:10:04.205Z,2.80
2019-05-14T07:12:35.565Z,2.87
2019-05-14T07:15:09.061Z,2.80
2019-05-14T07:17:38.982Z,2.97
2019-05-14T07:20:10.344Z,2.63
2019-05-14T07:22:40.820Z,2.93
2019-05-14T07:25:11.795Z,2.70
2019-05-14T07:27:42.533Z,2.63
2019-05-14T07:30:13.631Z,3.00
2019-05-14T07:32:44.317Z,3.00
2019-05-14T07:35:15.160Z,3.57
2019-05-14T07:37:48.707Z,3.10
2019-05-14T07:40:19.238Z,2.33
2019-05-14T07:42:50.230Z,2.97
2019-05-14T07:45:20.792Z,2.57
2019-05-14T07:47:51.701Z,2.57
2019-05-14T07:50:22.674Z,2.47
2019-05-14T07:52:53.458Z,2.33
2019-05-14T07:55:24.186Z,2.57
2019-05-14T07:57:54.927Z,2.37
2019-05-14T08:00:28.390Z,2.03
2019-05-14T08:02:58.443Z,2.30
2019-05-14T08:05:29.277Z,4.53
2019-05-14T08:08:00.018Z,2.10
2019-05-14T08:10:30.870Z,2.03
2019-05-14T08:13:01.691Z,2.10
2019-05-14T08:15:32.538Z,2.00
2019-05-14T08:18:03.270Z,2.10
2019-05-14T08:20:34.080Z,2.37
2019-05-14T08:23:04.838Z,2.07
2019-05-14T08:25:35.762Z,1.90
2019-05-14T08:28:08.155Z,2.30
2019-05-14T08:30:39.291Z,1.80
2019-05-14T08:33:10.125Z,2.03
2019-05-14T08:35:40.950Z,2.00
2019-05-14T08:38:12.307Z,2.00
2019-05-14T08:40:43.351Z,1.93
2019-05-14T08:43:14.114Z,1.70
2019-05-14T08:45:45.515Z,1.60
2019-05-14T08:48:18.782Z,2.03
2019-05-14T08:50:48.740Z,1.87
2019-05-14T08:53:19.492Z,2.13
2019-05-14T08:55:50.197Z,2.10
2019-05-14T08:58:21.079Z,2.20
2019-05-14T09:00:51.980Z,2.03
2019-05-14T09:03:22.719Z,2.10
2019-05-14T09:05:53.234Z,1.87
2019-05-14T09:08:24.078Z,1.90
2019-05-14T09:10:54.941Z,1.90
2019-05-14T09:13:25.307Z,1.90
2019-05-14T09:15:58.074Z,2.57
2019-05-14T09:18:29.068Z,1.60
2019-05-14T09:21:00.224Z,1.80
2019-05-14T09:23:30.962Z,1.80
2019-05-14T09:26:01.913Z,1.97
2019-05-14T09:28:32.732Z,2.20
2019-05-14T09:31:03.673Z,2.00
2019-05-14T09:33:34.412Z,2.00
2019-05-14T09:36:14.717Z,2.10
2019-05-14T09:38:41.718Z,2.17
2019-05-14T09:41:14.923Z,1.90
2019-05-14T09:43:42.083Z,2.10
2019-05-14T09:46:12.884Z,1.87
2019-05-14T09:48:43.609Z,1.67
2019-05-14T09:51:14.192Z,1.70
2019-05-14T09:53:44.874Z,1.73
2019-05-14T09:56:18.383Z,1.70
2019-05-14T09:58:49.552Z,1.60
2019-05-14T10:01:21.057Z,1.90
2019-05-14T10:03:52.119Z,1.60
2019-05-14T10:06:23.100Z,1.70
2019-05-14T10:08:54.184Z,1.70
2019-05-14T10:11:24.934Z,1.83
2019-05-14T10:13:55.476Z,1.87
2019-05-14T10:16:26.203Z,1.70
2019-05-14T10:18:57.431Z,1.70
2019-05-14T10:21:29.288Z,1.97
2019-05-14T10:24:00.860Z,2.50
2019-05-14T10:26:31.936Z,2.00
2019-05-14T10:29:02.853Z,1.60
2019-05-14T10:31:33.867Z,1.60
2019-05-14T10:34:04.501Z,1.60
2019-05-14T10:36:35.377Z,1.40
2019-05-14T10:39:09.398Z,1.87
2019-05-14T10:41:40.554Z,1.70
2019-05-14T10:44:11.351Z,1.77
2019-05-14T10:46:42.385Z,1.83
2019-05-14T10:49:23.239Z,1.80
2019-05-14T10:51:47.961Z,1.63
2019-05-14T10:54:25.222Z,1.90
2019-05-14T10:56:51.589Z,1.80
2019-05-14T10:59:22.415Z,1.63
2019-05-14T11:01:53.257Z,1.60
2019-05-14T11:04:25.313Z,1.70
2019-05-14T11:06:56.135Z,1.47
2019-05-14T11:09:28.553Z,1.50
2019-05-14T11:11:59.164Z,1.30
2019-05-14T11:14:31.701Z,1.37
2019-05-14T11:17:02.467Z,1.77
2019-05-14T11:19:32.908Z,1.60
2019-05-14T11:22:03.726Z,1.60
2019-05-14T11:24:34.459Z,1.90
2019-05-14T11:27:06.033Z,1.80
2019-05-14T11:29:38.761Z,1.70
2019-05-14T11:32:09.877Z,1.63
2019-05-14T11:34:40.684Z,1.70
2019-05-14T11:37:11.508Z,1.60
2019-05-14T11:39:42.357Z,1.70
2019-05-14T11:42:14.100Z,1.80
2019-05-14T11:44:44.849Z,1.97
2019-05-14T11:47:17.586Z,1.87
2019-05-14T11:49:49.314Z,1.67
2019-05-14T11:52:20.218Z,1.77
2019-05-14T11:54:51.051Z,1.80
2019-05-14T11:57:21.808Z,1.60
2019-05-14T11:59:52.630Z,2.00
2019-05-14T12:02:23.355Z,2.10
2019-05-14T12:04:54.100Z,1.50
2019-05-14T12:07:24.509Z,1.67
2019-05-14T12:09:55.398Z,1.50
2019-05-14T12:12:28.506Z,1.90
2019-05-14T12:14:58.662Z,1.63
2019-05-14T12:17:29.568Z,1.70
2019-05-14T12:20:00.657Z,2.00
2019-05-14T12:22:31.510Z,1.70
2019-05-14T12:25:02.327Z,1.60
2019-05-14T12:27:33.059Z,1.47
2019-05-14T12:30:09.630Z,1.60
2019-05-14T12:32:40.136Z,1.50
2019-05-14T12:35:11.116Z,1.50
2019-05-14T12:37:41.836Z,1.30
2019-05-14T12:40:12.805Z,1.70
2019-05-14T12:42:43.600Z,1.50
2019-05-14T12:45:15.063Z,1.50
2019-05-14T12:47:50.135Z,1.53
2019-05-14T12:50:21.151Z,1.60
2019-05-14T12:52:52.074Z,1.67
2019-05-14T12:55:22.809Z,1.90
2019-05-14T12:57:53.562Z,1.40
2019-05-14T13:00:34.765Z,1.50
2019-05-14T13:03:05.579Z,1.43
2019-05-14T13:05:36.418Z,1.77
2019-05-14T13:08:11.273Z,1.70
2019-05-14T13:10:39.741Z,1.87
2019-05-14T13:13:11.241Z,1.43
2019-05-14T13:15:42.016Z,1.70
2019-05-14T13:18:12.747Z,1.80
2019-05-14T13:20:43.476Z,1.50
2019-05-14T13:23:14.319Z,1.80
2019-05-14T13:25:45.275Z,1.47
2019-05-14T13:28:15.996Z,1.60
2019-05-14T13:30:48.902Z,1.83
2019-05-14T13:33:19.486Z,1.63
2019-05-14T13:35:53.514Z,1.70
2019-05-14T13:39:19.333Z,1.33
2019-05-14T13:41:41.779Z,1.87
2019-05-14T13:44:21.655Z,1.90
2019-05-14T13:46:43.555Z,1.50
2019-05-14T13:49:14.297Z,1.50
2019-05-14T13:51:45.048Z,1.57
2019-05-14T13:55:09.298Z,1.60
2019-05-14T13:57:29.511Z,1.50
2019-05-14T14:00:00.336Z,1.70
2019-05-14T14:02:33.579Z,1.43
2019-05-14T14:05:13.587Z,1.63
2019-05-14T14:07:44.890Z,1.40
2019-05-14T14:10:16.901Z,1.60
2019-05-14T14:12:49.557Z,1.93
2019-05-14T14:15:20.711Z,1.60
2019-05-14T14:17:51.504Z,1.40
2019-05-14T14:20:24.703Z,1.70
2019-05-14T14:22:58.422Z,1.40
2019-05-14T14:25:29.910Z,2.03
2019-05-14T14:28:00.870Z,2.80
2019-05-14T14:30:33.619Z,1.40
2019-05-14T14:33:04.072Z,1.80
2019-05-14T14:35:35.698Z,1.57
2019-05-14T14:38:08.671Z,1.70
2019-05-14T14:40:39.702Z,1.93
2019-05-14T14:43:10.476Z,1.50
2019-05-14T14:45:45.430Z,1.57
2019-05-14T14:48:13.797Z,1.80
2019-05-14T14:50:44.348Z,1.50
2019-05-14T14:53:15.187Z,1.80
2019-05-14T14:55:49.491Z,1.70
2019-05-14T14:58:20.101Z,1.53
2019-05-14T15:00:50.647Z,2.03
2019-05-14T15:03:21.506Z,2.07
2019-05-14T15:05:52.412Z,1.53
2019-05-14T15:08:23.064Z,1.50
2019-05-14T15:10:53.910Z,1.40
2019-05-14T15:13:24.714Z,1.50
2019-05-14T15:15:55.766Z,1.40
2019-05-14T15:18:28.832Z,1.80
2019-05-14T15:21:00.297Z,2.03
2019-05-14T15:23:31.232Z,1.70
2019-05-14T15:26:02.439Z,1.40
2019-05-14T15:28:34.237Z,1.50
2019-05-14T15:31:08.525Z,1.80
2019-05-14T15:33:38.305Z,1.60
2019-05-14T15:36:09.231Z,1.60
2019-05-14T15:38:43.417Z,1.60
2019-05-14T15:41:14.460Z,1.83
2019-05-14T15:43:45.208Z,2.00
2019-05-14T15:46:18.641Z,1.87
2019-05-14T15:48:49.717Z,1.87
2019-05-14T15:51:20.464Z,1.67
2019-05-14T15:54:05.424Z,1.80
2019-05-14T15:56:23.677Z,1.53
2019-05-14T15:58:54.419Z,1.63
2019-05-14T16:01:25.260Z,1.60
2019-05-14T16:03:56.074Z,1.60
2019-05-14T16:06:27.326Z,1.40
2019-05-14T16:08:59.007Z,1.40
2019-05-14T16:11:30.142Z,1.40
2019-05-14T16:14:01.000Z,1.63
2019-05-14T16:16:31.803Z,1.80
2019-05-14T16:19:02.564Z,1.60
2019-05-14T16:21:33.358Z,1.33
2019-05-14T16:24:04.108Z,1.90
2019-05-14T16:26:34.614Z,1.50
2019-05-14T16:29:05.381Z,1.97
2019-05-14T16:31:38.909Z,1.53
2019-05-14T16:34:09.937Z,1.70
2019-05-14T16:36:41.559Z,1.50
2019-05-14T16:39:12.751Z,1.90
2019-05-14T16:41:43.551Z,1.80
2019-05-14T16:44:14.368Z,1.70
2019-05-14T16:46:45.134Z,1.57
2019-05-14T16:49:18.371Z,1.47
2019-05-14T16:51:49.533Z,1.50
2019-05-14T16:54:20.778Z,1.50
2019-05-14T16:56:51.536Z,1.40
2019-05-14T16:59:22.297Z,1.53
2019-05-14T17:01:53.126Z,1.70
2019-05-14T17:04:23.922Z,1.50
2019-05-14T17:06:54.675Z,1.53
2019-05-14T17:09:28.008Z,1.50
2019-05-14T17:11:59.021Z,1.80
2019-05-14T17:14:29.984Z,2.13
2019-05-14T17:17:02.433Z,2.00
2019-05-14T17:19:33.147Z,1.70
2019-05-14T17:22:19.042Z,1.40
2019-05-14T17:24:36.169Z,1.70
2019-05-14T17:27:08.828Z,2.20
2019-05-14T17:29:39.212Z,1.80
2019-05-14T17:32:11.445Z,1.63
2019-05-14T17:34:42.266Z,1.70
2019-05-14T17:37:13.457Z,2.70
2019-05-14T17:39:44.156Z,2.10
2019-05-14T17:42:14.807Z,1.70
2019-05-14T17:44:45.515Z,1.80
2019-05-14T17:47:18.387Z,1.60
2019-05-14T17:49:48.683Z,1.60
2019-05-14T17:52:21.879Z,1.80
2019-05-14T17:54:52.345Z,1.90
2019-05-14T17:57:25.339Z,1.90
2019-05-14T17:59:58.241Z,2.10
2019-05-14T18:02:28.726Z,1.77
2019-05-14T18:04:59.694Z,1.77
2019-05-14T18:07:30.142Z,1.63
2019-05-14T18:10:01.315Z,1.50
2019-05-14T18:12:32.091Z,1.40
2019-05-14T18:15:02.505Z,1.60
2019-05-14T18:17:35.195Z,1.70
2019-05-14T18:20:08.763Z,1.57
2019-05-14T18:22:42.331Z,1.40
2019-05-14T18:25:12.513Z,1.50
2019-05-14T18:27:43.341Z,1.80
2019-05-14T18:30:14.080Z,1.80
2019-05-14T18:32:48.598Z,2.23
2019-05-14T18:35:19.039Z,1.60
2019-05-14T18:37:49.873Z,2.10
2019-05-14T18:40:23.775Z,2.30
2019-05-14T18:42:59.195Z,1.90
2019-05-14T18:45:29.637Z,2.20
2019-05-14T18:48:00.389Z,2.00
2019-05-14T18:50:32.468Z,2.10
2019-05-14T18:53:04.716Z,2.00
2019-05-14T18:55:35.481Z,2.00
2019-05-14T18:58:08.407Z,2.00
2019-05-14T19:00:39.011Z,2.00
2019-05-14T19:03:09.926Z,2.17
2019-05-14T19:05:40.671Z,2.20
2019-05-14T19:08:11.575Z,2.40
2019-05-14T19:10:42.539Z,2.50
2019-05-14T19:13:13.386Z,2.30
2019-05-14T19:15:44.285Z,2.33
2019-05-14T19:18:15.089Z,2.40
2019-05-14T19:20:48.418Z,2.40
2019-05-14T19:23:18.860Z,2.60
2019-05-14T19:25:49.709Z,2.40
2019-05-14T19:28:20.455Z,2.10
2019-05-14T19:30:51.273Z,2.87
2019-05-14T19:33:22.106Z,2.50
2019-05-14T19:35:52.686Z,2.60
2019-05-14T19:38:24.679Z,2.17
2019-05-14T19:40:55.541Z,2.00
2019-05-14T19:43:29.069Z,2.03
2019-05-14T19:46:00.124Z,2.20
2019-05-14T19:48:32.910Z,2.43
2019-05-14T19:51:03.138Z,2.33
2019-05-14T19:53:50.693Z,2.30
2019-05-14T19:56:13.397Z,2.73
2019-05-14T19:58:44.201Z,2.50
2019-05-14T20:01:14.680Z,2.40
2019-05-14T20:03:51.584Z,2.00
2019-05-14T20:06:23.794Z,2.00
2019-05-14T20:08:58.741Z,2.00
2019-05-14T20:11:29.740Z,2.00
2019-05-14T20:14:00.512Z,2.07
2019-05-14T20:16:31.373Z,2.00
2019-05-14T20:19:04.805Z,1.90
2019-05-14T20:21:35.299Z,1.87
2019-05-14T20:24:05.973Z,2.20
2019-05-14T20:26:38.857Z,2.23
2019-05-14T20:29:09.199Z,1.80
2019-05-14T20:31:40.035Z,1.83
2019-05-14T20:34:10.861Z,1.80
2019-05-14T20:36:41.338Z,1.80
2019-05-14T20:39:12.142Z,2.10
2019-05-14T20:41:43.075Z,2.30
2019-05-14T20:44:13.812Z,1.80
2019-05-14T20:46:44.653Z,1.90
2019-05-14T20:49:15.467Z,2.10
2019-05-14T20:51:46.194Z,1.70
2019-05-14T20:54:18.385Z,1.80
2019-05-14T20:56:52.461Z,1.80
2019-05-14T20:59:23.235Z,2.20
2019-05-14T21:01:53.980Z,1.60
2019-05-14T21:04:24.889Z,2.00
2019-05-14T21:06:55.322Z,2.27
2019-05-14T21:09:28.809Z,1.90
2019-05-14T21:11:58.637Z,2.27
2019-05-14T21:14:31.023Z,2.37
2019-05-14T21:17:19.798Z,2.10
2019-05-14T21:20:08.832Z,1.90
2019-05-14T21:22:40.413Z,1.90
2019-05-14T21:25:12.754Z,2.20
2019-05-14T21:27:48.368Z,2.37
2019-05-14T21:30:16.276Z,2.10
2019-05-14T21:32:48.362Z,2.27
2019-05-14T21:35:21.192Z,3.13
2019-05-14T21:37:52.413Z,2.30
2019-05-14T21:40:24.646Z,1.73
2019-05-14T21:42:55.566Z,1.90
2019-05-14T21:45:26.295Z,2.00
2019-05-14T21:47:59.253Z,2.00
2019-05-14T21:50:29.199Z,2.03
2019-05-14T21:52:59.925Z,2.13
2019-05-14T21:55:31.926Z,1.77
2019-05-14T21:58:02.520Z,2.00
2019-05-14T22:00:41.508Z,2.00
2019-05-14T22:03:10.775Z,1.80
2019-05-14T22:05:41.600Z,2.20
2019-05-14T22:08:12.345Z,2.00
2019-05-14T22:10:43.096Z,1.60
2019-05-14T22:13:13.515Z,2.00
2019-05-14T22:15:44.702Z,1.80
2019-05-14T22:18:18.557Z,1.80
2019-05-14T22:20:48.261Z,1.90
2019-05-14T22:23:21.161Z,1.87
2019-05-14T22:25:55.259Z,1.90
2019-05-14T22:28:26.290Z,1.80
2019-05-14T22:31:01.568Z,2.03
2019-05-14T22:33:33.930Z,1.70
2019-05-14T22:36:04.746Z,1.83
2019-05-14T22:38:38.902Z,2.10
2019-05-14T22:41:11.523Z,1.73
2019-05-14T22:43:42.836Z,2.10
2019-05-14T22:46:21.066Z,1.83
2019-05-14T22:48:51.911Z,1.90
2019-05-14T22:51:22.450Z,1.90
2019-05-14T22:53:53.866Z,1.83
2019-05-14T22:56:28.040Z,1.70
2019-05-14T22:58:58.940Z,2.27
2019-05-14T23:01:31.903Z,1.87
2019-05-14T23:04:04.368Z,2.30
2019-05-14T23:06:38.063Z,1.87
2019-05-14T23:09:09.013Z,1.90
2019-05-14T23:11:40.012Z,2.00
2019-05-14T23:14:10.786Z,1.90
2019-05-14T23:16:42.089Z,2.23
2019-05-14T23:19:13.030Z,1.90
2019-05-14T23:21:43.864Z,1.97
2019-05-14T23:24:14.598Z,2.20
2019-05-14T23:26:45.452Z,2.13
2019-05-14T23:29:17.705Z,2.00
2019-05-14T23:31:48.982Z,1.80
2019-05-14T23:34:19.790Z,1.73
2019-05-14T23:36:50.546Z,1.80
2019-05-14T23:39:21.506Z,1.80
2019-05-14T23:41:52.642Z,2.00
2019-05-14T23:44:23.350Z,2.00
2019-05-14T23:46:54.090Z,1.90
2019-05-14T23:49:24.952Z,2.17
2019-05-14T23:51:55.738Z,2.00
2019-05-14T23:54:28.971Z,1.80
2019-05-14T23:56:58.992Z,2.00
2019-05-14T23:59:29.692Z,1.90
